createdAt,value
2023-01-19T00:02:06.002Z,94984.59
2023-01-19T00:05:10.515Z,94961.00
2023-01-19T00:08:18.615Z,94961.72
2023-01-19T00:11:23.479Z,94964.09
2023-01-19T00:14:32.337Z,94979.34
2023-01-19T00:17:36.609Z,94965.16
2023-01-19T00:20:42.577Z,94955.41
2023-01-19T00:23:53.660Z,94983.16
2023-01-19T00:27:09.410Z,94966.38
2023-01-19T00:30:19.626Z,94969.84
2023-01-19T00:33:21.743Z,94970.53
2023-01-19T00:36:27.688Z,94972.31
2023-01-19T00:39:32.130Z,94996.59
2023-01-19T00:42:46.063Z,94979.00
2023-01-19T00:45:47.880Z,94982.25
2023-01-19T00:48:49.599Z,95012.03
2023-01-19T00:51:51.415Z,95002.75
2023-01-19T00:54:53.212Z,95012.03
2023-01-19T00:58:00.419Z,95020.94
2023-01-19T01:01:04.931Z,95011.34
2023-01-19T01:04:09.161Z,95011.47
2023-01-19T01:07:11.003Z,95011.00
2023-01-19T01:10:20.614Z,95028.09
2023-01-19T01:13:23.619Z,95010.84
2023-01-19T01:16:26.780Z,95035.28
2023-01-19T01:19:28.827Z,95014.31
2023-01-19T01:22:31.873Z,95035.19
2023-01-19T01:25:41.666Z,95037.09
2023-01-19T01:28:52.014Z,95038.41
2023-01-19T01:31:58.845Z,95032.44
2023-01-19T01:35:01.210Z,95053.28
2023-01-19T01:38:19.362Z,95033.53
2023-01-19T01:41:34.416Z,95032.56
2023-01-19T01:45:00.064Z,95056.97
2023-01-19T01:48:12.435Z,95055.78
2023-01-19T01:51:30.418Z,95058.81
2023-01-19T01:54:45.846Z,95064.84
2023-01-19T01:57:54.081Z,95058.19
2023-01-19T02:01:14.443Z,95054.41
2023-01-19T02:04:19.052Z,95061.31
2023-01-19T02:07:52.086Z,95053.00
2023-01-19T02:11:14.436Z,95072.41
2023-01-19T02:14:21.374Z,95067.41
2023-01-19T02:17:33.837Z,95064.53
2023-01-19T02:20:41.731Z,95078.25
2023-01-19T02:24:05.637Z,95088.84
2023-01-19T02:27:19.075Z,95086.22
2023-01-19T02:30:21.442Z,95089.69
2023-01-19T02:33:31.160Z,95076.34
2023-01-19T02:37:15.526Z,95092.44
2023-01-19T02:40:26.947Z,95089.81
2023-01-19T02:43:35.798Z,95090.56
2023-01-19T02:46:43.907Z,95083.75
2023-01-19T02:50:02.870Z,95081.25
2023-01-19T02:53:18.354Z,95091.03
2023-01-19T02:56:57.646Z,95099.84
2023-01-19T03:00:19.913Z,95088.19
2023-01-19T03:03:40.151Z,95085.94
2023-01-19T03:07:18.899Z,95106.31
2023-01-19T03:11:02.758Z,95096.28
2023-01-19T03:14:11.201Z,95091.78
2023-01-19T03:17:20.964Z,95094.41
2023-01-19T03:20:32.427Z,95089.84
2023-01-19T03:23:38.929Z,95084.88
2023-01-19T03:27:00.124Z,95072.09
2023-01-19T03:30:12.424Z,95069.00
2023-01-19T03:33:29.687Z,95096.78
2023-01-19T03:36:38.309Z,95105.75
2023-01-19T03:39:40.477Z,95104.06
2023-01-19T03:42:47.783Z,95081.78
2023-01-19T03:45:57.388Z,95105.50
2023-01-19T03:49:02.361Z,95080.47
2023-01-19T03:52:08.186Z,95107.53
2023-01-19T03:55:12.417Z,95103.72
2023-01-19T03:58:14.481Z,95114.66
2023-01-19T04:01:21.316Z,95091.56
2023-01-19T04:04:23.188Z,95118.59
2023-01-19T04:07:25.125Z,95104.78
2023-01-19T04:10:31.645Z,95095.72
2023-01-19T04:13:39.146Z,95113.25
2023-01-19T04:16:46.719Z,95092.63
2023-01-19T04:19:54.575Z,95095.16
2023-01-19T04:23:22.428Z,95101.69
2023-01-19T04:26:32.249Z,95083.06
2023-01-19T04:29:36.185Z,95105.59
2023-01-19T04:32:37.933Z,95119.44
2023-01-19T04:35:39.829Z,95126.38
2023-01-19T04:38:41.759Z,95107.16
2023-01-19T04:41:44.022Z,95105.72
2023-01-19T04:44:46.048Z,95117.16
2023-01-19T04:47:47.855Z,95134.09
2023-01-19T04:50:51.468Z,95120.00
2023-01-19T04:53:53.222Z,95127.03
2023-01-19T04:56:55.136Z,95117.16
2023-01-19T04:59:57.660Z,95140.13
2023-01-19T05:03:00.001Z,95134.88
2023-01-19T05:06:02.023Z,95132.25
2023-01-19T05:09:04.504Z,95119.38
2023-01-19T05:12:06.304Z,95146.34
2023-01-19T05:15:09.663Z,95142.16
2023-01-19T05:18:11.431Z,95144.88
2023-01-19T05:21:13.178Z,95128.19
2023-01-19T05:24:15.598Z,95138.22
2023-01-19T05:27:17.447Z,95121.75
2023-01-19T05:30:19.384Z,95130.19
2023-01-19T05:33:22.160Z,95133.03
2023-01-19T05:36:23.947Z,95121.59
2023-01-19T05:39:26.819Z,95125.78
2023-01-19T05:42:28.576Z,95125.16
2023-01-19T05:45:30.639Z,95127.88
2023-01-19T05:48:32.843Z,95128.84
2023-01-19T05:51:38.494Z,95128.25
2023-01-19T05:54:40.510Z,95158.28
2023-01-19T05:57:43.262Z,95134.88
2023-01-19T06:00:44.994Z,95144.06
2023-01-19T06:03:48.824Z,95156.00
2023-01-19T06:06:51.099Z,95152.28
2023-01-19T06:09:52.900Z,95150.81
2023-01-19T06:12:54.699Z,95139.94
2023-01-19T06:15:58.634Z,95164.75
2023-01-19T06:19:00.480Z,95158.28
2023-01-19T06:22:03.014Z,95162.09
2023-01-19T06:25:06.168Z,95180.44
2023-01-19T06:28:07.921Z,95173.78
2023-01-19T06:31:09.914Z,95180.69
2023-01-19T06:34:12.179Z,95173.72
2023-01-19T06:37:16.376Z,95191.94
2023-01-19T06:40:20.423Z,95176.28
2023-01-19T06:43:22.667Z,95176.50
2023-01-19T06:46:24.977Z,95206.66
2023-01-19T06:49:27.110Z,95196.00
2023-01-19T06:52:29.474Z,95200.78
2023-01-19T06:55:31.748Z,95206.22
2023-01-19T06:58:35.141Z,95192.34
2023-01-19T07:01:37.511Z,95191.84
2023-01-19T07:04:39.796Z,95206.16
2023-01-19T07:07:45.761Z,95209.97
2023-01-19T07:11:26.013Z,95206.59
2023-01-19T07:14:10.483Z,95209.44
2023-01-19T07:17:13.098Z,95234.94
2023-01-19T07:20:15.228Z,95247.69
2023-01-19T07:23:17.718Z,95250.31
2023-01-19T07:26:21.623Z,95231.00
2023-01-19T07:29:23.824Z,95240.19
2023-01-19T07:32:27.286Z,95221.06
2023-01-19T07:35:30.306Z,95229.75
2023-01-19T07:38:32.868Z,95238.22
2023-01-19T07:41:35.134Z,95254.09
2023-01-19T07:44:38.651Z,95246.78
2023-01-19T07:47:42.657Z,95240.81
2023-01-19T07:50:45.658Z,95235.19
2023-01-19T07:53:51.399Z,95266.34
2023-01-19T07:56:56.279Z,95248.16
2023-01-19T07:59:58.505Z,95255.69
2023-01-19T08:03:01.969Z,95259.16
2023-01-19T08:06:05.317Z,95280.28
2023-01-19T08:09:07.528Z,95259.38
2023-01-19T08:12:09.353Z,95280.28
2023-01-19T08:15:11.837Z,95262.59
2023-01-19T08:18:15.727Z,95268.47
2023-01-19T08:21:18.099Z,95268.06
2023-01-19T08:24:23.211Z,95260.31
2023-01-19T08:27:25.547Z,95266.16
2023-01-19T08:30:27.894Z,95281.31
2023-01-19T08:33:29.690Z,95265.22
2023-01-19T08:36:32.358Z,95276.72
2023-01-19T08:39:35.295Z,95284.97
2023-01-19T08:42:37.701Z,95272.88
2023-01-19T08:45:46.618Z,95274.53
2023-01-19T08:48:49.450Z,95289.56
2023-01-19T08:51:51.749Z,95303.81
2023-01-19T08:54:53.564Z,95289.47
2023-01-19T08:57:58.076Z,95317.41
2023-01-19T09:01:01.508Z,95297.63
2023-01-19T09:04:10.835Z,95299.91
2023-01-19T09:07:13.353Z,95315.72
2023-01-19T09:10:30.379Z,95307.22
2023-01-19T09:13:33.101Z,95323.97
2023-01-19T09:16:35.685Z,95320.31
2023-01-19T09:19:45.573Z,95312.56
2023-01-19T09:22:49.141Z,95313.06
2023-01-19T09:25:57.567Z,95308.97
2023-01-19T09:29:14.311Z,95301.66
2023-01-19T09:32:20.549Z,95304.31
2023-01-19T09:35:26.317Z,95288.00
2023-01-19T09:38:32.099Z,95310.25
2023-01-19T09:41:43.194Z,95298.81
2023-01-19T09:48:22.754Z,95288.25
2023-01-19T09:51:39.536Z,95310.38
2023-01-19T09:54:52.815Z,95299.03
2023-01-19T09:58:01.493Z,95293.94
2023-01-19T10:01:20.515Z,95289.19
2023-01-19T10:04:40.217Z,95292.78
2023-01-19T10:07:54.753Z,95308.34
2023-01-19T10:10:58.299Z,95306.94
2023-01-19T10:14:00.112Z,95303.88
2023-01-19T10:17:42.279Z,95307.72
2023-01-19T10:20:51.539Z,95284.44
2023-01-19T10:24:06.576Z,95305.72
2023-01-19T10:27:19.279Z,95306.22
2023-01-19T10:30:28.485Z,95306.94
2023-01-19T10:33:31.982Z,95283.66
2023-01-19T10:36:44.484Z,95290.63
2023-01-19T10:39:54.611Z,95286.69
2023-01-19T10:42:57.922Z,95302.41
2023-01-19T10:46:00.194Z,95274.41
2023-01-19T10:49:02.399Z,95264.38
2023-01-19T10:52:08.042Z,95290.28
2023-01-19T10:55:25.508Z,95281.44
2023-01-19T10:58:31.024Z,95273.22
2023-01-19T11:01:38.268Z,95282.66
2023-01-19T11:04:42.193Z,95290.88
2023-01-19T11:07:44.459Z,95277.03
2023-01-19T11:10:56.388Z,95281.91
2023-01-19T11:14:26.048Z,95277.72
2023-01-19T11:17:28.786Z,95270.56
2023-01-19T11:20:50.416Z,95279.28
2023-01-19T11:23:55.466Z,95250.03
2023-01-19T11:27:03.723Z,95255.88
2023-01-19T11:30:24.745Z,95270.56
2023-01-19T11:33:34.449Z,95267.47
2023-01-19T11:36:36.979Z,95274.75
2023-01-19T11:40:00.581Z,95254.06
2023-01-19T11:43:02.724Z,95267.06
2023-01-19T11:46:05.332Z,95253.91
2023-01-19T11:49:20.047Z,95241.50
2023-01-19T11:52:28.902Z,95241.94
2023-01-19T11:55:34.266Z,95256.38
2023-01-19T11:58:48.085Z,95231.81
2023-01-19T12:01:57.541Z,95245.72
2023-01-19T12:05:05.322Z,95249.97
2023-01-19T12:08:17.241Z,95240.06
2023-01-19T12:11:26.999Z,95237.31
2023-01-19T12:14:39.163Z,95240.84
2023-01-19T12:17:48.926Z,95239.38
2023-01-19T12:20:54.290Z,95239.97
2023-01-19T12:24:26.262Z,95260.81
2023-01-19T12:27:43.471Z,95247.91
2023-01-19T12:30:45.836Z,95248.38
2023-01-19T12:33:48.112Z,95249.66
2023-01-19T12:36:50.916Z,95242.28
2023-01-19T12:39:53.998Z,95229.63
2023-01-19T12:42:56.401Z,95250.94
2023-01-19T12:45:58.472Z,95219.69
2023-01-19T12:49:05.335Z,95237.22
2023-01-19T12:52:19.094Z,95243.88
2023-01-19T12:55:35.075Z,95236.63
2023-01-19T12:58:36.826Z,95252.75
2023-01-19T13:01:38.792Z,95242.72
2023-01-19T13:04:40.840Z,95238.81
2023-01-19T13:08:08.415Z,95244.75
2023-01-19T13:11:17.137Z,95234.06
2023-01-19T13:14:38.335Z,95232.25
2023-01-19T13:17:54.664Z,95231.28
2023-01-19T13:21:08.245Z,95230.72
2023-01-19T13:24:12.957Z,95229.16
2023-01-19T13:27:15.205Z,95238.81
2023-01-19T13:30:20.210Z,95238.22
2023-01-19T13:33:25.485Z,95250.19
2023-01-19T13:36:31.437Z,95248.38
2023-01-19T13:39:44.206Z,95254.22
2023-01-19T13:42:48.206Z,95245.03
2023-01-19T13:45:53.481Z,95248.81
2023-01-19T13:49:04.852Z,95237.16
2023-01-19T13:52:23.365Z,95254.53
2023-01-19T13:55:28.637Z,95232.84
2023-01-19T13:58:32.068Z,95250.50
2023-01-19T14:01:34.609Z,95256.91
2023-01-19T14:04:37.304Z,95258.13
2023-01-19T14:07:39.574Z,95266.72
2023-01-19T14:10:54.738Z,95268.91
2023-01-19T14:13:56.576Z,95246.06
2023-01-19T14:16:59.689Z,95246.44
2023-01-19T14:20:01.808Z,95255.03
2023-01-19T14:23:05.717Z,95258.09
2023-01-19T14:26:38.776Z,95264.53
2023-01-19T14:29:40.766Z,95257.16
2023-01-19T14:32:47.678Z,95268.13
2023-01-19T14:35:49.581Z,95264.09
2023-01-19T14:38:52.967Z,95250.59
2023-01-19T14:41:58.000Z,95255.88
2023-01-19T14:45:03.081Z,95244.75
2023-01-19T14:48:21.913Z,95261.69
2023-01-19T14:51:26.223Z,95269.34
2023-01-19T14:54:36.091Z,95269.13
2023-01-19T14:57:38.373Z,95260.94
2023-01-19T15:00:41.517Z,95263.94
2023-01-19T15:03:45.628Z,95252.38
2023-01-19T15:06:48.691Z,95256.19
2023-01-19T15:09:51.906Z,95268.59
2023-01-19T15:12:55.143Z,95250.69
2023-01-19T15:15:59.005Z,95269.56
2023-01-19T15:19:00.826Z,95260.88
2023-01-19T15:22:02.696Z,95276.16
2023-01-19T15:25:04.756Z,95276.16
2023-01-19T15:28:12.272Z,95268.66
2023-01-19T15:31:17.083Z,95256.38
2023-01-19T15:34:19.055Z,95258.16
2023-01-19T15:37:20.821Z,95258.16
2023-01-19T15:40:23.384Z,95269.78
2023-01-19T15:43:25.146Z,95269.91
2023-01-19T15:46:26.922Z,95281.09
2023-01-19T15:49:30.880Z,95267.16
2023-01-19T15:52:32.507Z,95262.97
2023-01-19T15:55:34.158Z,95265.03
2023-01-19T15:58:35.920Z,95275.75
2023-01-19T16:01:37.713Z,95272.31
2023-01-19T16:04:39.485Z,95260.88
2023-01-19T16:07:41.298Z,95278.16
2023-01-19T16:10:43.285Z,95283.31
2023-01-19T16:13:46.357Z,95270.31
2023-01-19T16:16:48.339Z,95293.94
2023-01-19T16:19:49.987Z,95285.84
2023-01-19T16:22:51.820Z,95297.88
2023-01-19T16:26:08.145Z,95286.56
2023-01-19T16:29:10.983Z,95274.88
2023-01-19T16:32:12.798Z,95287.63
2023-01-19T16:35:15.786Z,95281.19
2023-01-19T16:38:17.652Z,95307.31
2023-01-19T16:41:20.072Z,95294.94
2023-01-19T16:44:21.983Z,95300.03
2023-01-19T16:47:24.397Z,95299.94
2023-01-19T16:50:26.349Z,95300.88
2023-01-19T16:53:29.731Z,95284.44
2023-01-19T16:56:32.048Z,95303.06
2023-01-19T16:59:33.994Z,95303.06
2023-01-19T17:02:35.870Z,95305.06
2023-01-19T17:05:39.140Z,95313.19
2023-01-19T17:08:41.607Z,95291.34
2023-01-19T17:11:43.891Z,95322.88
2023-01-19T17:14:47.572Z,95309.25
2023-01-19T17:17:49.477Z,95309.72
2023-01-19T17:20:51.419Z,95309.38
2023-01-19T17:23:54.855Z,95322.88
2023-01-19T17:26:56.530Z,95305.78
2023-01-19T17:29:58.261Z,95307.81
2023-01-19T17:33:01.461Z,95304.34
2023-01-19T17:36:12.835Z,95307.69
2023-01-19T17:39:15.020Z,95301.97
2023-01-19T17:42:16.876Z,95293.50
2023-01-19T17:45:18.719Z,95306.97
2023-01-19T17:48:46.713Z,95321.56
2023-01-19T17:51:55.812Z,95307.47
2023-01-19T17:54:57.927Z,95304.09
2023-01-19T17:58:00.409Z,95309.84
2023-01-19T18:01:31.864Z,95330.25
2023-01-19T18:04:33.805Z,95315.34
2023-01-19T18:07:35.671Z,95314.16
2023-01-19T18:10:38.164Z,95330.00
2023-01-19T18:13:42.893Z,95325.34
2023-01-19T18:16:44.782Z,95318.69
2023-01-19T18:19:46.825Z,95314.63
2023-01-19T18:22:48.613Z,95313.78
2023-01-19T18:25:50.657Z,95306.03
2023-01-19T18:28:56.315Z,95314.75
2023-01-19T18:31:58.171Z,95319.16
2023-01-19T18:35:00.055Z,95308.19
2023-01-19T18:38:01.832Z,95319.38
2023-01-19T18:41:04.825Z,95312.22
2023-01-19T18:44:06.536Z,95309.72
2023-01-19T18:47:08.418Z,95321.53
2023-01-19T18:50:11.091Z,95319.97
2023-01-19T18:53:13.765Z,95312.56
2023-01-19T18:56:16.576Z,95316.28
2023-01-19T18:59:18.517Z,95314.34
2023-01-19T19:02:20.443Z,95317.22
2023-01-19T19:05:22.264Z,95316.84
2023-01-19T19:08:24.293Z,95313.13
2023-01-19T19:11:26.880Z,95325.94
2023-01-19T19:14:28.769Z,95316.97
2023-01-19T19:17:30.530Z,95318.28
2023-01-19T19:20:32.326Z,95326.00
2023-01-19T19:23:34.880Z,95318.59
2023-01-19T19:26:36.753Z,95345.81
2023-01-19T19:29:38.506Z,95329.94
2023-01-19T19:32:40.294Z,95336.28
2023-01-19T19:35:42.155Z,95339.00
2023-01-19T19:38:44.905Z,95342.38
2023-01-19T19:41:46.869Z,95322.91
2023-01-19T19:44:48.730Z,95340.78
2023-01-19T19:47:51.003Z,95327.19
2023-01-19T19:50:53.200Z,95336.50
2023-01-19T19:53:57.237Z,95321.22
2023-01-19T19:56:59.072Z,95341.41
2023-01-19T20:00:00.965Z,95330.66
2023-01-19T20:03:02.712Z,95340.69
2023-01-19T20:06:13.990Z,95327.41
2023-01-19T20:09:16.764Z,95331.50
2023-01-19T20:12:18.736Z,95326.34
2023-01-19T20:15:20.593Z,95342.59
2023-01-19T20:18:28.494Z,95320.50
2023-01-19T20:21:32.904Z,95340.78
2023-01-19T20:24:34.687Z,95341.41
2023-01-19T20:27:36.426Z,95327.31
2023-01-19T20:30:38.188Z,95334.00
2023-01-19T20:33:42.035Z,95342.94
2023-01-19T20:36:46.891Z,95330.09
2023-01-19T20:39:49.023Z,95337.72
2023-01-19T20:42:50.730Z,95315.97
2023-01-19T20:45:52.889Z,95338.53
2023-01-19T20:48:54.853Z,95315.97
2023-01-19T20:51:56.916Z,95327.47
2023-01-19T20:54:58.704Z,95318.97
2023-01-19T20:58:00.394Z,95332.34
2023-01-19T21:01:10.445Z,95323.88
2023-01-19T21:04:12.824Z,95332.47
2023-01-19T21:07:14.710Z,95327.56
2023-01-19T21:10:19.546Z,95317.28
2023-01-19T21:13:21.382Z,95327.78
2023-01-19T21:16:24.937Z,95336.66
2023-01-19T21:19:26.753Z,95326.50
2023-01-19T21:22:28.428Z,95336.06
2023-01-19T21:25:30.175Z,95326.84
2023-01-19T21:28:31.893Z,95327.47
2023-01-19T21:31:33.765Z,95329.34
2023-01-19T21:34:35.666Z,95340.13
2023-01-19T21:37:37.442Z,95334.88
2023-01-19T21:40:39.204Z,95339.16
2023-01-19T21:43:42.633Z,95335.91
2023-01-19T21:46:44.353Z,95340.34
2023-01-19T21:49:46.048Z,95331.13
2023-01-19T21:52:47.770Z,95322.78
2023-01-19T21:55:49.572Z,95334.50
2023-01-19T21:58:51.355Z,95343.09
2023-01-19T22:01:53.289Z,95348.94
2023-01-19T22:04:55.188Z,95347.97
2023-01-19T22:07:56.884Z,95332.19
2023-01-19T22:11:05.939Z,95348.44
2023-01-19T22:14:07.807Z,95355.50
2023-01-19T22:17:09.605Z,95347.25
2023-01-19T22:20:11.654Z,95356.06
2023-01-19T22:23:13.541Z,95344.72
2023-01-19T22:26:15.864Z,95367.41
2023-01-19T22:29:17.771Z,95369.09
2023-01-19T22:32:19.598Z,95356.16
2023-01-19T22:35:21.599Z,95365.25
2023-01-19T22:38:23.274Z,95349.34
2023-01-19T22:41:30.546Z,95372.06
2023-01-19T22:44:32.259Z,95379.22
2023-01-19T22:47:33.979Z,95373.47
2023-01-19T22:50:35.694Z,95359.03
2023-01-19T22:53:37.398Z,95364.72
2023-01-19T22:56:40.978Z,95358.63
2023-01-19T22:59:43.662Z,95381.94
2023-01-19T23:02:45.520Z,95381.94
2023-01-19T23:05:47.348Z,95377.63
2023-01-19T23:08:49.418Z,95380.16
2023-01-19T23:11:51.428Z,95385.19
2023-01-19T23:14:53.072Z,95378.47
2023-01-19T23:17:54.824Z,95376.22
2023-01-19T23:20:56.523Z,95382.56
2023-01-19T23:24:02.993Z,95376.00
2023-01-19T23:27:04.724Z,95372.63
2023-01-19T23:30:08.020Z,95382.47
2023-01-19T23:33:09.722Z,95373.47
2023-01-19T23:36:12.158Z,95381.63
2023-01-19T23:39:16.904Z,95375.84
2023-01-19T23:42:18.593Z,95359.75
2023-01-19T23:45:20.385Z,95367.50
2023-01-19T23:48:22.121Z,95383.31
2023-01-19T23:51:26.904Z,95382.56
2023-01-19T23:54:28.845Z,95387.81
2023-01-19T23:57:30.632Z,95379.00
